Time;durP1;ratioP1;P1;durP2;ratioP2;P2;SDS_P1;SDS_P2;PMS_P1;PMS_P2;Temp;Humidity;BMP_temperature;BMP_pressure;BME280_temperature;BME280_humidity;BME280_pressure;Samples;Min_cycle;Max_cycle;Signal;HPM_P1;HPM_P2
2021/05/08 00:01:37;;;;;;;3.30;1.55;;;18.30;96.40;;;;;;6338504;22;20009;-84
2021/05/08 00:04:04;;;;;;;3.00;1.60;;;18.30;96.20;;;;;;6338431;22;20021;-83
2021/05/08 00:06:33;;;;;;;4.47;1.80;;;18.30;96.20;;;;;;6338597;22;20002;-77
2021/05/08 00:09:09;;;;;;;2.30;2.10;;;18.30;96.30;;;;;;6338506;22;20436;-77
2021/05/08 00:11:35;;;;;;;3.03;1.60;;;18.30;96.30;;;;;;6338578;22;20006;-83
2021/05/08 00:14:01;;;;;;;6.35;1.77;;;18.30;96.20;;;;;;6338500;22;19999;-84
2021/05/08 00:16:27;;;;;;;3.25;1.73;;;18.30;96.30;;;;;;6338814;22;19995;-78
2021/05/08 00:18:53;;;;;;;1.95;1.30;;;18.30;96.30;;;;;;6338386;22;20064;-77
2021/05/08 00:21:19;;;;;;;1.40;1.30;;;18.20;96.30;;;;;;6338413;22;19999;-84
2021/05/08 00:23:45;;;;;;;5.38;1.42;;;18.20;96.40;;;;;;6310704;22;20014;-84
2021/05/08 00:26:11;;;;;;;2.72;1.20;;;18.20;96.40;;;;;;6338626;22;19998;-80
2021/05/08 00:28:37;;;;;;;4.43;1.67;;;18.20;96.40;;;;;;6338418;22;20002;-83
2021/05/08 00:31:02;;;;;;;3.87;1.70;;;18.10;96.50;;;;;;6317347;22;20081;-83
2021/05/08 00:33:28;;;;;;;3.03;1.30;;;18.20;96.50;;;;;;6352919;22;20079;-78
2021/05/08 00:35:54;;;;;;;5.47;1.65;;;18.20;96.50;;;;;;6310781;22;20364;-84
2021/05/08 00:38:20;;;;;;;4.67;2.07;;;18.20;96.50;;;;;;6310484;22;20057;-83
2021/05/08 00:40:46;;;;;;;3.65;1.75;;;18.30;96.40;;;;;;6338229;22;20329;-77
2021/05/08 00:43:15;;;;;;;2.75;1.75;;;18.30;96.40;;;;;;6310536;22;20006;-77
2021/05/08 00:45:41;;;;;;;4.53;1.80;;;18.30;96.40;;;;;;6338393;22;20125;-84
2021/05/08 00:48:12;;;;;;;2.53;1.67;;;18.20;96.40;;;;;;6338737;22;20072;-83
2021/05/08 00:50:40;;;;;;;2.00;1.77;;;18.20;96.50;;;;;;6338372;22;20341;-77
2021/05/08 00:53:08;;;;;;;4.65;1.60;;;18.20;96.60;;;;;;6310453;22;20010;-83
2021/05/08 00:55:37;;;;;;;2.50;1.77;;;18.20;96.60;;;;;;6310483;22;20003;-83
2021/05/08 00:58:06;;;;;;;2.97;1.80;;;18.00;96.60;;;;;;6338481;22;20448;-84
2021/05/08 01:00:34;;;;;;;4.43;1.90;;;17.90;97.00;;;;;;6305071;22;20034;-83
2021/05/08 01:03:01;;;;;;;3.83;1.85;;;17.80;97.10;;;;;;6305337;22;20093;-84
2021/05/08 01:05:32;;;;;;;5.75;1.80;;;17.80;97.30;;;;;;6306795;22;20007;-79
2021/05/08 01:08:01;;;;;;;3.58;2.00;;;17.40;97.60;;;;;;6305213;22;19999;-83
2021/05/08 01:10:29;;;;;;;9.20;2.45;;;17.20;98.20;;;;;;6305081;22;20018;-83
2021/05/08 01:13:00;;;;;;;5.32;2.28;;;17.10;98.60;;;;;;6305372;22;19999;-78
2021/05/08 01:15:27;;;;;;;5.60;2.50;;;17.00;98.70;;;;;;6305196;22;20011;-83
2021/05/08 01:17:54;;;;;;;4.78;2.20;;;16.90;99.00;;;;;;6307035;22;20037;-80
2021/05/08 01:20:22;;;;;;;5.85;2.38;;;16.90;99.20;;;;;;6306938;22;20060;-83
2021/05/08 01:22:51;;;;;;;5.38;1.90;;;16.90;99.20;;;;;;6306734;22;20003;-83
2021/05/08 01:25:25;;;;;;;6.97;1.98;;;16.70;99.60;;;;;;6306977;22;20011;-84
2021/05/08 01:27:53;;;;;;;4.95;2.60;;;16.60;99.90;;;;;;6305186;22;20014;-83
2021/05/08 01:30:24;;;;;;;6.03;3.00;;;16.60;99.90;;;;;;6305185;22;20493;-77
2021/05/08 01:32:51;;;;;;;4.47;2.05;;;16.50;99.90;;;;;;6305159;22;20003;-83
2021/05/08 01:35:17;;;;;;;3.00;1.63;;;16.50;99.90;;;;;;6306974;22;20004;-83
2021/05/08 01:37:45;;;;;;;6.50;3.10;;;16.50;99.90;;;;;;6305065;22;20052;-77
2021/05/08 01:40:14;;;;;;;3.47;2.30;;;16.40;99.90;;;;;;6306976;22;20015;-84
2021/05/08 01:42:48;;;;;;;5.28;1.90;;;16.40;99.90;;;;;;6310281;22;20031;-79
2021/05/08 01:45:17;;;;;;;5.30;2.00;;;16.40;99.90;;;;;;6312836;22;20023;-83
2021/05/08 01:47:44;;;;;;;3.33;2.33;;;16.40;99.90;;;;;;6305042;22;20010;-83
2021/05/08 01:50:12;;;;;;;5.57;1.90;;;16.30;99.90;;;;;;6305067;22;20478;-78
2021/05/08 01:52:39;;;;;;;3.30;1.90;;;16.40;99.90;;;;;;6308271;22;20007;-83
2021/05/08 01:55:08;;;;;;;4.40;2.75;;;16.40;99.90;;;;;;6308676;22;20003;-83
2021/05/08 01:57:47;;;;;;;6.00;2.53;;;16.50;99.90;;;;;;6306969;22;20003;-83
2021/05/08 02:00:21;;;;;;;6.15;2.22;;;16.50;99.90;;;;;;6311111;22;20010;-83
2021/05/08 02:02:49;;;;;;;3.47;2.55;;;16.50;99.90;;;;;;6339538;22;20038;-83
2021/05/08 02:05:21;;;;;;;4.35;2.03;;;16.60;99.90;;;;;;6311836;22;20019;-76
2021/05/08 02:07:51;;;;;;;5.35;1.83;;;16.70;99.90;;;;;;6311970;22;20030;-83
2021/05/08 02:10:18;;;;;;;3.28;1.80;;;16.70;99.90;;;;;;6286466;22;20006;-78
2021/05/08 02:12:46;;;;;;;6.60;2.20;;;16.70;99.90;;;;;;6312120;22;20342;-82
2021/05/08 02:15:14;;;;;;;4.22;2.20;;;16.70;99.90;;;;;;6339787;22;20003;-83
2021/05/08 02:17:41;;;;;;;5.88;1.77;;;16.70;99.90;;;;;;6339380;22;20010;-83
2021/05/08 02:20:22;;;;;;;4.55;2.00;;;16.50;99.90;;;;;;6311691;22;20009;-82
2021/05/08 02:22:50;;;;;;;7.00;2.78;;;16.40;99.90;;;;;;6312016;22;20011;-83
2021/05/08 02:25:16;;;;;;;3.72;2.15;;;16.40;99.90;;;;;;6285975;22;20349;-82
2021/05/08 02:27:43;;;;;;;3.40;2.13;;;16.30;99.90;;;;;;6339708;22;20003;-83
2021/05/08 02:30:15;;;;;;;3.70;2.25;;;16.20;99.90;;;;;;6311738;22;20433;-77
2021/05/08 02:32:41;;;;;;;3.50;2.38;;;16.10;99.90;;;;;;6311705;22;20006;-82
2021/05/08 02:35:10;;;;;;;5.15;2.05;;;16.10;99.90;;;;;;6311599;22;20144;-83
2021/05/08 02:37:37;;;;;;;9.15;3.40;;;16.10;99.90;;;;;;6311674;22;20431;-83
2021/05/08 02:40:12;;;;;;;8.35;2.20;;;16.10;99.90;;;;;;6311722;22;20003;-77
2021/05/08 02:42:39;;;;;;;5.95;2.50;;;16.10;99.90;;;;;;6339458;22;20006;-76
2021/05/08 02:45:07;;;;;;;4.95;2.97;;;16.10;99.90;;;;;;6339096;22;20408;-82
2021/05/08 02:47:39;;;;;;;3.33;2.15;;;16.10;99.90;;;;;;6311741;22;20018;-83
2021/05/08 02:50:07;;;;;;;3.40;2.45;;;16.10;99.90;;;;;;6312226;22;20060;-83
2021/05/08 02:52:34;;;;;;;4.85;2.83;;;16.20;99.90;;;;;;6311858;22;20002;-83
2021/05/08 02:55:00;;;;;;;5.18;2.17;;;16.20;99.90;;;;;;6341841;22;20007;-83
2021/05/08 02:57:26;;;;;;;5.10;2.33;;;16.20;99.90;;;;;;6356452;22;19997;-78
2021/05/08 02:59:53;;;;;;;5.10;2.42;;;16.30;99.90;;;;;;6311633;22;20441;-82
2021/05/08 03:02:19;;;;;;;3.63;2.25;;;16.20;99.90;;;;;;6305955;22;20355;-79
2021/05/08 03:04:45;;;;;;;6.18;2.25;;;16.30;99.90;;;;;;6307800;22;20011;-82
2021/05/08 03:07:11;;;;;;;4.85;2.17;;;16.20;99.90;;;;;;6306494;22;20088;-83
2021/05/08 03:09:37;;;;;;;5.00;1.85;;;16.10;99.90;;;;;;6307999;22;20425;-83
2021/05/08 03:12:04;;;;;;;3.63;2.70;;;16.10;99.90;;;;;;6308084;22;20086;-83
2021/05/08 03:14:31;;;;;;;5.32;2.25;;;16.00;99.90;;;;;;6306103;22;20007;-77
2021/05/08 03:16:58;;;;;;;4.22;3.20;;;16.00;99.90;;;;;;6307727;22;19995;-83
2021/05/08 03:19:24;;;;;;;2.85;1.95;;;16.00;99.90;;;;;;6307569;22;20438;-78
2021/05/08 03:21:52;;;;;;;4.97;2.08;;;16.10;99.90;;;;;;6305984;22;19999;-77
2021/05/08 03:24:18;;;;;;;4.10;2.00;;;16.10;99.90;;;;;;6307733;22;20011;-76
2021/05/08 03:26:44;;;;;;;3.72;2.20;;;16.10;99.90;;;;;;6306173;22;20233;-83
2021/05/08 03:29:10;;;;;;;6.47;1.90;;;16.20;99.90;;;;;;6306221;22;20071;-77
2021/05/08 03:31:36;;;;;;;4.38;2.67;;;16.20;99.90;;;;;;6306032;22;20003;-78
2021/05/08 03:34:02;;;;;;;3.38;2.40;;;16.30;99.90;;;;;;6307543;22;20042;-81
2021/05/08 03:36:29;;;;;;;6.22;2.03;;;16.40;99.90;;;;;;6305972;22;20007;-80
2021/05/08 03:38:55;;;;;;;3.65;2.10;;;16.40;99.90;;;;;;6307685;22;20010;-83
2021/05/08 03:41:21;;;;;;;4.57;2.83;;;16.40;99.70;;;;;;6307562;22;19996;-83
2021/05/08 03:43:48;;;;;;;6.05;2.30;;;16.40;99.60;;;;;;6307738;22;20377;-82
2021/05/08 03:46:14;;;;;;;4.35;1.90;;;16.20;99.60;;;;;;6307379;22;20023;-83
2021/05/08 03:48:40;;;;;;;5.53;2.67;;;16.10;99.70;;;;;;6307417;22;20000;-81
2021/05/08 03:51:06;;;;;;;7.30;2.83;;;16.10;99.80;;;;;;6307743;22;20064;-76
2021/05/08 03:53:32;;;;;;;3.90;1.95;;;16.10;99.60;;;;;;6307542;22;20427;-76
2021/05/08 03:55:58;;;;;;;4.13;2.33;;;16.20;99.50;;;;;;6307369;22;20052;-84
2021/05/08 03:58:28;;;;;;;3.53;1.90;;;16.20;99.20;;;;;;6307672;22;20031;-82
2021/05/08 04:00:55;;;;;;;3.15;2.00;;;16.10;99.20;;;;;;6319877;22;20010;-83
2021/05/08 04:03:21;;;;;;;3.17;2.03;;;16.10;99.20;;;;;;6338889;22;20006;-83
2021/05/08 04:05:47;;;;;;;8.55;2.40;;;16.20;99.20;;;;;;6339061;22;20035;-77
2021/05/08 04:08:13;;;;;;;4.35;1.70;;;16.10;99.40;;;;;;6345308;22;19999;-82
2021/05/08 04:10:40;;;;;;;2.00;1.50;;;16.20;99.60;;;;;;6354208;22;20010;-84
2021/05/08 04:13:06;;;;;;;2.63;1.75;;;16.10;99.50;;;;;;6339529;22;20503;-78
2021/05/08 04:15:32;;;;;;;4.15;2.15;;;16.00;99.40;;;;;;6338983;22;20007;-83
2021/05/08 04:17:58;;;;;;;5.18;2.58;;;16.00;99.20;;;;;;6310798;22;20060;-83
2021/05/08 04:20:24;;;;;;;5.28;1.92;;;16.00;99.00;;;;;;6338407;22;20069;-82
2021/05/08 04:22:50;;;;;;;2.45;1.70;;;16.00;98.80;;;;;;6338615;22;20003;-77
2021/05/08 04:25:16;;;;;;;2.22;1.98;;;16.00;98.70;;;;;;6310586;22;20017;-76
2021/05/08 04:27:42;;;;;;;2.78;1.65;;;16.20;98.60;;;;;;6338396;22;20073;-83
2021/05/08 04:30:08;;;;;;;3.92;1.63;;;16.20;98.50;;;;;;6310721;22;20022;-79
2021/05/08 04:32:34;;;;;;;2.72;1.60;;;16.30;98.50;;;;;;6341579;22;20003;-85
2021/05/08 04:35:00;;;;;;;5.90;1.67;;;16.40;98.30;;;;;;6311872;22;20008;-83
2021/05/08 04:37:26;;;;;;;3.70;1.42;;;16.50;98.10;;;;;;6339290;22;20283;-83
2021/05/08 04:39:52;;;;;;;3.83;1.63;;;16.70;98.00;;;;;;6340636;22;20003;-77
2021/05/08 04:42:18;;;;;;;1.60;1.38;;;16.80;97.70;;;;;;6346269;22;20070;-84
2021/05/08 04:44:44;;;;;;;1.67;1.38;;;16.80;97.50;;;;;;6340334;22;20018;-82
2021/05/08 04:47:12;;;;;;;2.57;1.30;;;16.90;97.30;;;;;;6338275;22;20333;-82
2021/05/08 04:49:39;;;;;;;1.92;1.10;;;17.00;97.40;;;;;;6338292;22;20217;-80
2021/05/08 04:52:05;;;;;;;3.67;1.48;;;17.10;97.20;;;;;;6338487;22;20007;-83
2021/05/08 04:54:31;;;;;;;2.08;1.27;;;17.20;97.00;;;;;;6338242;22;20425;-76
2021/05/08 04:56:57;;;;;;;2.33;1.63;;;17.20;97.10;;;;;;6338492;22;20010;-83
2021/05/08 04:59:23;;;;;;;3.17;1.13;;;17.20;96.90;;;;;;6338185;22;20078;-82
2021/05/08 05:01:49;;;;;;;3.45;1.40;;;17.20;96.90;;;;;;6338017;22;20346;-78
2021/05/08 05:04:15;;;;;;;3.03;1.33;;;17.20;96.70;;;;;;6310360;22;20068;-83
2021/05/08 05:06:41;;;;;;;4.32;1.50;;;17.20;96.70;;;;;;6338364;22;19998;-83
2021/05/08 05:09:07;;;;;;;3.73;1.97;;;17.30;96.60;;;;;;6338229;22;20066;-84
2021/05/08 05:11:33;;;;;;;3.30;1.33;;;17.30;96.60;;;;;;6338103;22;20026;-82
2021/05/08 05:13:58;;;;;;;5.53;1.93;;;17.30;96.50;;;;;;6338172;22;20475;-84
2021/05/08 05:16:25;;;;;;;2.25;1.42;;;17.30;96.70;;;;;;6337979;22;20286;-83
2021/05/08 05:18:51;;;;;;;5.70;1.48;;;17.40;96.50;;;;;;6311704;22;20055;-80
2021/05/08 05:21:17;;;;;;;3.55;1.63;;;17.50;96.50;;;;;;6325444;22;20030;-78
2021/05/08 05:23:43;;;;;;;2.70;1.70;;;17.50;96.50;;;;;;6317330;22;20018;-82
2021/05/08 05:26:09;;;;;;;4.03;1.47;;;17.60;96.30;;;;;;6338303;22;20007;-83
2021/05/08 05:28:35;;;;;;;3.03;1.87;;;17.60;95.90;;;;;;6340312;22;20261;-84
2021/05/08 05:31:01;;;;;;;5.27;2.27;;;17.70;95.80;;;;;;6312271;22;20293;-84
2021/05/08 05:33:27;;;;;;;2.73;1.27;;;17.80;95.90;;;;;;6340239;22;20225;-76
2021/05/08 05:35:55;;;;;;;3.75;1.90;;;17.90;95.40;;;;;;6340048;22;20038;-83
2021/05/08 05:38:25;;;;;;;2.88;1.83;;;17.90;95.20;;;;;;6339893;22;20006;-83
2021/05/08 05:40:55;;;;;;;3.20;1.42;;;17.90;95.00;;;;;;6312333;22;20013;-76
2021/05/08 05:43:21;;;;;;;3.10;1.38;;;17.90;95.20;;;;;;6339956;22;20082;-81
2021/05/08 05:45:47;;;;;;;3.30;1.60;;;17.90;95.00;;;;;;6312355;22;20011;-77
2021/05/08 05:48:14;;;;;;;2.55;1.17;;;18.00;94.80;;;;;;6312226;22;20003;-83
2021/05/08 05:50:42;;;;;;;3.35;1.40;;;18.10;94.90;;;;;;6339671;22;20070;-77
2021/05/08 05:53:08;;;;;;;3.20;2.08;;;18.10;95.10;;;;;;6339611;22;19999;-76
2021/05/08 05:55:34;;;;;;;6.47;1.90;;;18.20;95.10;;;;;;6339709;22;19999;-77
2021/05/08 05:58:00;;;;;;;2.50;1.58;;;18.30;95.00;;;;;;6339865;22;19995;-76
2021/05/08 06:00:26;;;;;;;4.53;1.55;;;18.30;94.80;;;;;;6339416;22;20018;-83
2021/05/08 06:02:52;;;;;;;5.95;1.95;;;18.40;94.50;;;;;;6312138;22;20041;-76
2021/05/08 06:05:18;;;;;;;4.88;1.60;;;18.40;94.40;;;;;;6339446;22;20337;-83
2021/05/08 06:07:45;;;;;;;3.47;1.83;;;18.50;94.80;;;;;;6312074;22;20032;-83
2021/05/08 06:10:13;;;;;;;3.30;1.40;;;18.60;94.60;;;;;;6339475;22;20009;-77
2021/05/08 06:12:39;;;;;;;5.13;2.33;;;18.60;94.70;;;;;;6339698;22;20140;-82
2021/05/08 06:15:07;;;;;;;7.22;1.52;;;18.70;94.90;;;;;;6339623;22;20005;-80
2021/05/08 06:17:33;;;;;;;2.40;1.63;;;18.80;95.00;;;;;;6339448;22;20003;-84
2021/05/08 06:19:59;;;;;;;3.83;1.80;;;18.80;94.70;;;;;;6339636;22;20007;-84
2021/05/08 06:22:25;;;;;;;2.90;1.43;;;18.80;94.70;;;;;;6339403;22;19999;-80
2021/05/08 06:24:51;;;;;;;3.42;1.52;;;18.90;94.50;;;;;;6339535;22;20257;-83
2021/05/08 06:27:17;;;;;;;4.07;1.70;;;18.90;94.90;;;;;;6339675;22;20070;-83
2021/05/08 06:29:43;;;;;;;6.45;1.50;;;19.00;94.80;;;;;;6339731;22;20484;-84
2021/05/08 06:32:09;;;;;;;5.13;1.70;;;19.00;95.00;;;;;;6340385;22;20007;-77
2021/05/08 06:34:35;;;;;;;4.75;1.40;;;19.10;94.90;;;;;;6354002;22;20007;-84
2021/05/08 06:37:02;;;;;;;2.55;1.42;;;19.10;94.60;;;;;;6339332;22;20028;-83
2021/05/08 06:39:31;;;;;;;4.28;1.40;;;19.20;94.10;;;;;;6339509;22;20009;-83
2021/05/08 06:41:57;;;;;;;3.47;1.58;;;19.20;94.30;;;;;;6339403;22;19999;-83
2021/05/08 06:44:25;;;;;;;3.20;1.50;;;19.30;94.20;;;;;;6339494;22;20034;-83
2021/05/08 06:46:57;;;;;;;3.08;1.20;;;19.40;94.40;;;;;;6339617;22;19998;-83
2021/05/08 06:49:23;;;;;;;4.78;1.85;;;19.40;94.20;;;;;;6339516;22;20322;-84
2021/05/08 06:51:49;;;;;;;5.25;1.60;;;19.50;94.30;;;;;;6339233;22;20030;-84
2021/05/08 06:54:15;;;;;;;4.25;1.60;;;19.60;94.30;;;;;;6339280;22;20013;-77
2021/05/08 06:56:42;;;;;;;3.85;1.73;;;19.70;94.00;;;;;;6339732;22;19998;-84
2021/05/08 06:59:08;;;;;;;5.75;1.52;;;19.70;94.40;;;;;;6312138;22;20340;-83
2021/05/08 07:01:34;;;;;;;3.95;1.70;;;19.70;94.30;;;;;;6339179;22;20498;-83
2021/05/08 07:04:00;;;;;;;5.15;1.63;;;19.70;94.60;;;;;;6339846;22;20014;-77
2021/05/08 07:06:26;;;;;;;7.72;1.88;;;19.70;94.70;;;;;;6339378;22;20029;-77
2021/05/08 07:08:53;;;;;;;3.78;1.50;;;19.80;94.70;;;;;;6339541;22;20006;-84
2021/05/08 07:11:20;;;;;;;3.00;1.70;;;19.80;95.00;;;;;;6339085;22;20089;-83
2021/05/08 07:13:46;;;;;;;4.15;1.58;;;19.90;95.00;;;;;;6339044;22;20073;-85
2021/05/08 07:16:12;;;;;;;4.73;2.00;;;19.90;95.20;;;;;;6311563;22;20026;-82
2021/05/08 07:18:38;;;;;;;6.57;1.90;;;19.90;95.10;;;;;;6339398;22;20236;-84
2021/05/08 07:21:04;;;;;;;3.67;2.10;;;19.90;95.60;;;;;;6311640;22;19998;-84
2021/05/08 07:23:30;;;;;;;3.60;2.30;;;20.00;95.80;;;;;;6311228;22;20010;-83
2021/05/08 07:25:56;;;;;;;3.03;1.83;;;20.10;95.40;;;;;;6339231;22;20011;-85
2021/05/08 07:28:24;;;;;;;7.22;2.28;;;20.10;95.10;;;;;;6338909;22;20302;-77
2021/05/08 07:30:55;;;;;;;4.72;2.38;;;20.20;95.10;;;;;;6339295;22;20069;-84
2021/05/08 07:33:21;;;;;;;3.13;2.00;;;20.20;95.30;;;;;;6339376;22;20074;-84
2021/05/08 07:35:49;;;;;;;7.32;1.80;;;20.20;95.20;;;;;;6311608;22;20003;-84
2021/05/08 07:38:15;;;;;;;9.15;1.80;;;20.10;95.40;;;;;;6339135;22;20006;-84
2021/05/08 07:40:42;;;;;;;3.50;1.52;;;20.20;95.40;;;;;;6338967;22;19999;-83
2021/05/08 07:43:09;;;;;;;2.88;1.90;;;20.20;95.60;;;;;;6338764;22;20330;-78
2021/05/08 07:45:36;;;;;;;5.55;1.90;;;20.30;95.60;;;;;;6315163;22;20050;-76
2021/05/08 07:48:02;;;;;;;3.45;1.80;;;20.40;95.50;;;;;;6346446;22;20011;-84
2021/05/08 07:50:28;;;;;;;7.68;2.15;;;20.50;95.70;;;;;;6338721;22;20003;-84
2021/05/08 07:52:55;;;;;;;8.55;2.05;;;20.70;95.70;;;;;;6339059;22;20433;-83
2021/05/08 07:55:21;;;;;;;5.35;2.60;;;20.70;95.30;;;;;;6338986;22;19999;-84
2021/05/08 07:57:47;;;;;;;5.60;2.83;;;20.70;95.10;;;;;;6338702;22;20009;-84
2021/05/08 08:00:15;;;;;;;5.43;1.75;;;20.70;95.40;;;;;;6338580;22;20038;-82
2021/05/08 08:02:41;;;;;;;5.13;1.75;;;20.70;95.70;;;;;;6338662;22;20002;-84
2021/05/08 08:05:08;;;;;;;8.05;2.05;;;20.80;95.70;;;;;;6338657;22;20010;-82
2021/05/08 08:07:35;;;;;;;12.43;2.40;;;21.00;95.70;;;;;;6338754;22;19995;-83
2021/05/08 08:10:04;;;;;;;10.10;2.95;;;21.00;95.60;;;;;;6339540;22;20439;-84
2021/05/08 08:12:30;;;;;;;4.45;2.00;;;21.10;95.90;;;;;;6312315;22;20006;-84
2021/05/08 08:14:55;;;;;;;6.38;2.05;;;21.20;95.20;;;;;;6341004;22;20010;-83
2021/05/08 08:17:22;;;;;;;5.90;1.87;;;21.30;95.30;;;;;;6340339;22;20052;-84
2021/05/08 08:19:48;;;;;;;4.70;2.30;;;21.20;95.30;;;;;;6339486;22;20043;-84
2021/05/08 08:22:17;;;;;;;4.88;2.20;;;21.30;95.30;;;;;;6339385;22;20025;-84
2021/05/08 08:24:44;;;;;;;5.57;2.05;;;21.30;95.50;;;;;;6311235;22;20042;-79
2021/05/08 08:27:11;;;;;;;5.57;2.00;;;21.40;95.70;;;;;;6338692;22;20010;-83
2021/05/08 08:29:37;;;;;;;3.83;2.13;;;21.50;96.10;;;;;;6339150;22;20007;-84
2021/05/08 08:32:04;;;;;;;6.45;2.20;;;21.60;95.90;;;;;;6338812;22;20005;-84
2021/05/08 08:34:30;;;;;;;3.30;2.17;;;21.50;95.90;;;;;;6338521;22;20006;-83
2021/05/08 08:36:56;;;;;;;5.57;2.75;;;21.70;95.80;;;;;;6338780;22;19999;-83
2021/05/08 08:39:22;;;;;;;8.23;3.20;;;21.80;96.20;;;;;;6339027;22;20003;-84
2021/05/08 08:41:48;;;;;;;6.45;2.97;;;21.90;96.00;;;;;;6338926;22;19995;-83
2021/05/08 08:44:14;;;;;;;13.43;3.00;;;21.90;96.30;;;;;;6338651;22;20021;-84
2021/05/08 08:46:41;;;;;;;5.77;2.50;;;22.00;96.20;;;;;;6338768;22;20467;-83
2021/05/08 08:49:08;;;;;;;7.05;2.38;;;22.10;96.50;;;;;;6338414;22;20244;-82
2021/05/08 08:51:35;;;;;;;5.80;2.38;;;22.10;96.00;;;;;;6338364;22;20346;-83
2021/05/08 08:54:01;;;;;;;4.93;2.30;;;22.00;95.90;;;;;;6338417;22;20433;-83
2021/05/08 08:56:34;;;;;;;6.53;3.17;;;22.00;96.10;;;;;;6338680;22;20434;-83
2021/05/08 08:59:04;;;;;;;9.68;3.00;;;22.10;96.40;;;;;;6329691;22;20012;-85
2021/05/08 09:01:30;;;;;;;11.32;4.00;;;22.20;97.00;;;;;;6338316;22;20380;-84
2021/05/08 09:03:57;;;;;;;9.32;3.58;;;22.30;97.90;;;;;;6339612;22;20003;-77
2021/05/08 09:06:25;;;;;;;10.18;4.10;;;22.30;98.00;;;;;;6311468;22;20074;-83
2021/05/08 09:08:53;;;;;;;7.45;2.78;;;22.40;98.20;;;;;;6338259;22;19995;-77
2021/05/08 09:11:21;;;;;;;11.88;3.80;;;22.30;98.30;;;;;;6338030;22;20029;-82
2021/05/08 09:13:47;;;;;;;7.07;3.15;;;22.40;98.10;;;;;;6338241;22;20452;-83
2021/05/08 09:16:13;;;;;;;9.88;3.03;;;22.50;98.00;;;;;;6310298;22;20507;-83
2021/05/08 09:18:40;;;;;;;7.93;3.30;;;22.40;98.40;;;;;;6338488;22;19999;-82
2021/05/08 09:21:25;;;;;;;5.95;2.35;;;22.60;98.40;;;;;;6338159;22;20228;-84
2021/05/08 09:23:51;;;;;;;4.18;2.28;;;22.50;96.80;;;;;;6338113;22;20137;-84
2021/05/08 09:26:16;;;;;;;7.07;2.80;;;22.60;96.20;;;;;;6338091;22;20022;-83
2021/05/08 09:28:52;;;;;;;7.47;2.70;;;22.60;97.90;;;;;;6338035;22;19999;-83
2021/05/08 09:31:19;;;;;;;8.98;2.90;;;22.50;97.50;;;;;;6338083;22;20010;-83
2021/05/08 09:33:52;;;;;;;8.35;3.30;;;22.40;98.20;;;;;;6338170;22;20043;-84
2021/05/08 09:36:18;;;;;;;5.95;3.13;;;22.60;98.60;;;;;;6338039;22;20456;-83
2021/05/08 09:38:45;;;;;;;10.82;3.28;;;22.40;97.60;;;;;;6337927;22;20429;-84
2021/05/08 09:41:13;;;;;;;10.23;2.67;;;22.30;97.40;;;;;;6338447;22;20325;-83
2021/05/08 09:43:40;;;;;;;10.75;2.88;;;22.20;97.00;;;;;;6338056;22;20384;-83
2021/05/08 09:46:08;;;;;;;7.93;2.80;;;22.00;97.20;;;;;;6337962;22;20007;-84
2021/05/08 09:48:36;;;;;;;7.15;2.80;;;22.00;97.30;;;;;;6337871;22;20033;-83
2021/05/08 09:51:30;;;;;;;8.15;2.85;;;22.00;97.70;;;;;;6337886;22;20325;-82
2021/05/08 09:54:12;;;;;;;5.15;2.80;;;22.00;97.80;;;;;;6337852;22;20028;-84
2021/05/08 09:56:40;;;;;;;7.22;3.30;;;22.30;97.90;;;;;;6338259;22;20006;-83
2021/05/08 09:59:37;;;;;;;10.23;2.80;;;22.40;97.70;;;;;;6310265;22;20014;-84
2021/05/08 10:02:03;;;;;;;8.18;2.78;;;22.50;97.50;;;;;;6337648;22;20035;-84
2021/05/08 10:04:34;;;;;;;23.20;4.15;;;22.40;97.40;;;;;;6337836;22;20014;-82
2021/05/08 10:07:11;;;;;;;6.88;2.83;;;22.50;97.40;;;;;;6337753;22;20003;-83
2021/05/08 10:09:39;;;;;;;8.38;2.35;;;22.50;97.10;;;;;;6342836;22;20010;-81
2021/05/08 10:12:09;;;;;;;7.93;2.50;;;22.40;97.30;;;;;;6348784;22;20089;-83
2021/05/08 10:14:43;;;;;;;6.68;2.75;;;22.60;97.30;;;;;;6339772;22;20030;-84
2021/05/08 10:17:12;;;;;;;7.32;2.47;;;22.60;97.20;;;;;;6339582;22;20009;-82
2021/05/08 10:19:40;;;;;;;6.90;3.08;;;22.80;97.10;;;;;;6339678;22;20010;-84
2021/05/08 10:22:11;;;;;;;6.93;2.50;;;23.00;96.80;;;;;;6339417;22;20048;-83
2021/05/08 10:24:39;;;;;;;8.20;2.45;;;22.90;95.80;;;;;;6339394;22;20010;-84
2021/05/08 10:27:05;;;;;;;6.63;2.55;;;23.10;95.90;;;;;;6339951;22;20003;-80
2021/05/08 10:29:35;;;;;;;4.65;2.45;;;23.20;95.10;;;;;;6339824;22;20003;-85
2021/05/08 10:32:04;;;;;;;6.95;2.30;;;23.30;95.00;;;;;;6339591;22;20010;-82
2021/05/08 10:34:37;;;;;;;8.45;2.53;;;23.40;95.40;;;;;;6339345;22;20002;-84
2021/05/08 10:37:11;;;;;;;3.30;2.25;;;23.60;95.30;;;;;;6339547;22;20041;-83
2021/05/08 10:39:54;;;;;;;7.22;2.92;;;23.80;95.10;;;;;;6339510;22;20428;-83
2021/05/08 10:42:57;;;;;;;8.55;2.97;;;23.80;94.40;;;;;;6339284;22;20064;-78
2021/05/08 10:45:31;;;;;;;3.35;1.92;;;23.80;94.10;;;;;;6311948;22;20018;-84
2021/05/08 10:48:00;;;;;;;9.55;2.50;;;23.70;94.70;;;;;;6339130;22;19998;-84
2021/05/08 10:50:39;;;;;;;3.80;1.70;;;23.90;94.80;;;;;;6339089;22;20009;-83
2021/05/08 10:53:10;;;;;;;6.18;2.40;;;24.20;94.00;;;;;;6339340;22;19998;-84
2021/05/08 10:55:51;;;;;;;5.32;2.72;;;24.30;94.20;;;;;;6339052;22;20014;-84
2021/05/08 10:58:17;;;;;;;6.45;2.25;;;24.30;93.50;;;;;;6338869;22;19999;-83
2021/05/08 11:00:48;;;;;;;4.15;2.13;;;24.60;93.60;;;;;;6339014;22;20015;-84
2021/05/08 11:03:15;;;;;;;6.22;2.20;;;24.70;92.90;;;;;;6339039;22;20052;-80
2021/05/08 11:05:51;;;;;;;4.15;1.70;;;24.80;92.90;;;;;;6339138;22;20006;-84
2021/05/08 11:08:26;;;;;;;4.50;2.67;;;24.60;92.80;;;;;;6340862;22;20303;-84
2021/05/08 11:10:57;;;;;;;7.25;2.45;;;24.40;93.30;;;;;;6338944;22;20003;-80
2021/05/08 11:13:25;;;;;;;8.40;2.92;;;24.60;92.90;;;;;;6338947;22;20010;-81
2021/05/08 11:15:56;;;;;;;5.32;2.28;;;24.30;93.20;;;;;;6311578;22;20111;-83
2021/05/08 11:18:34;;;;;;;5.30;2.20;;;24.40;93.50;;;;;;6339089;22;20082;-84
2021/05/08 11:21:26;;;;;;;7.68;2.15;;;24.60;93.00;;;;;;6340248;22;20002;-83
2021/05/08 11:24:11;;;;;;;3.30;1.70;;;24.70;92.30;;;;;;6352352;22;20345;-84
2021/05/08 11:26:38;;;;;;;5.35;1.98;;;24.60;91.40;;;;;;6339052;22;20022;-78
2021/05/08 11:29:10;;;;;;;5.60;1.80;;;24.40;92.00;;;;;;6338860;22;20074;-78
2021/05/08 11:31:57;;;;;;;8.48;2.15;;;24.30;92.30;;;;;;6338892;22;20417;-81
2021/05/08 11:34:25;;;;;;;7.90;2.33;;;24.60;91.90;;;;;;6338978;22;20018;-83
2021/05/08 11:37:07;;;;;;;6.82;1.80;;;24.80;91.80;;;;;;6338937;22;20007;-83
2021/05/08 11:39:37;;;;;;;5.50;1.95;;;24.90;91.20;;;;;;6311350;22;20013;-84
2021/05/08 11:42:16;;;;;;;7.38;2.30;;;25.10;91.10;;;;;;6338902;22;20003;-85
2021/05/08 11:44:52;;;;;;;3.03;1.73;;;25.10;90.50;;;;;;6338952;22;20303;-85
2021/05/08 11:49:57;;;;;;;4.22;1.83;;;24.30;91.70;;;;;;6338627;22;20014;-83
2021/05/08 11:52:35;;;;;;;6.13;1.98;;;24.30;91.90;;;;;;6338543;22;20002;-79
2021/05/08 11:55:03;;;;;;;7.53;1.83;;;24.50;92.20;;;;;;6338663;22;20078;-84
2021/05/08 11:57:30;;;;;;;3.72;2.38;;;24.60;91.50;;;;;;6338533;22;20013;-83
2021/05/08 11:59:56;;;;;;;4.90;1.95;;;24.50;91.10;;;;;;6338217;22;19999;-79
2021/05/08 12:02:24;;;;;;;2.37;1.53;;;24.40;90.70;;;;;;6310796;22;20046;-83
2021/05/08 12:04:54;;;;;;;8.80;1.80;;;24.30;90.40;;;;;;6338469;22;20347;-77
2021/05/08 12:07:29;;;;;;;6.20;1.80;;;24.60;90.20;;;;;;6338465;22;20034;-79
2021/05/08 12:10:22;;;;;;;5.63;2.63;;;24.90;89.00;;;;;;6311896;22;20006;-84
2021/05/08 12:12:56;;;;;;;2.75;1.95;;;24.70;88.10;;;;;;6338711;22;19999;-83
2021/05/08 12:15:33;;;;;;;6.15;1.85;;;24.80;85.80;;;;;;6338458;22;20074;-83
2021/05/08 12:18:06;;;;;;;7.38;1.85;;;24.80;83.00;;;;;;6338419;22;20003;-84
2021/05/08 12:20:36;;;;;;;4.72;1.70;;;24.70;82.40;;;;;;6338464;22;20076;-83
2021/05/08 12:23:08;;;;;;;5.32;2.38;;;24.70;81.50;;;;;;6338539;22;20010;-84
2021/05/08 12:25:35;;;;;;;4.28;1.60;;;24.40;81.60;;;;;;6338395;22;20017;-84
2021/05/08 12:28:16;;;;;;;2.35;1.45;;;24.30;81.80;;;;;;6338603;22;20003;-84
2021/05/08 12:30:47;;;;;;;4.05;1.40;;;24.20;82.70;;;;;;6338855;22;20056;-84
2021/05/08 12:33:25;;;;;;;2.97;1.42;;;24.20;81.30;;;;;;6311689;22;20073;-84
2021/05/08 12:35:55;;;;;;;5.78;1.80;;;24.20;80.40;;;;;;6353422;22;20010;-85
2021/05/08 12:38:20;;;;;;;4.05;1.35;;;24.40;83.10;;;;;;6338346;22;20006;-78
2021/05/08 12:40:50;;;;;;;6.10;1.33;;;24.40;81.50;;;;;;6338543;22;20003;-80
2021/05/08 12:43:30;;;;;;;3.97;2.33;;;24.30;83.30;;;;;;6338268;22;20066;-83
2021/05/08 12:46:02;;;;;;;3.67;1.60;;;24.40;83.20;;;;;;6338314;22;20441;-84
2021/05/08 12:48:32;;;;;;;3.55;1.40;;;24.50;82.30;;;;;;6338779;22;19999;-84
2021/05/08 12:50:58;;;;;;;2.55;1.70;;;24.50;82.40;;;;;;6310900;22;20007;-84
2021/05/08 12:53:24;;;;;;;2.45;1.42;;;24.60;82.50;;;;;;6338250;22;20006;-84
2021/05/08 12:56:01;;;;;;;7.72;2.05;;;24.60;82.10;;;;;;6338520;22;20006;-84